neil on the web!

ADDS Results

0036 UTC 25 May 2020

EGJB 242350Z 34004KT CAVOK 10/09 Q1035
EGJB 242250Z 33004KT CAVOK 10/10 Q1035
TAF EGJB 242303Z 2500/2509 36004KT CAVOK
EGJJ 250020Z AUTO 01005KT 9999 NCD 11/10 Q1034
EGJJ 242350Z AUTO 36006KT 9999 NCD 11/10 Q1034
EGJJ 242320Z AUTO 01007KT 9999 NCD 11/10 Q1034
EGJJ 242250Z AUTO 36005KT 9999 NCD 11/10 Q1034
TAF EGJJ 242303Z 2500/2509 03004KT CAVOK
EGKK 250020Z VRB01KT CAVOK 13/09 Q1034
EGKK 242350Z VRB01KT CAVOK 13/09 Q1034
EGKK 242320Z VRB01KT CAVOK 14/09 Q1033
EGKK 242250Z VRB03KT CAVOK 14/10 Q1033
TAF EGKK 242258Z 2500/2606 VRB04KT 9999 FEW045
PROB30 2501/2507 7000
PROB30 2513/2520 20010KT
PROB30 2601/2606 7000
EGSS 250020Z AUTO 25003KT 9999 NCD 10/09 Q1034
EGSS 242350Z AUTO 34002KT 9999 NCD 09/08 Q1033
EGSS 242320Z AUTO 01003KT 9999 NCD 10/08 Q1033
EGSS 242250Z AUTO VRB01KT 9999 NCD 10/08 Q1033
TAF EGSS 242256Z 2500/2606 VRB03KT CAVOK
EGGW 250020Z AUTO 29009KT 9999 NCD 13/06 Q1034
EGGW 242350Z AUTO 28008KT 9999 NCD 13/08 Q1034
EGGW 242320Z AUTO 28009KT 9999 NCD 13/09 Q1033
EGGW 242250Z AUTO 27009KT 9999 NCD 12/09 Q1033
TAF EGGW 242256Z 2500/2524 VRB03KT CAVOK
EGSH 250020Z AUTO 26003KT 9999 NCD 11/08 Q1033
EGSH 242350Z AUTO 28003KT 9999 NCD 11/08 Q1033
EGSH 242320Z AUTO 30002KT 9999 NCD 12/09 Q1033
EGSH 242250Z AUTO 30003KT 9999 FEW045/// 13/09 Q1033
TAF EGSH 241953Z 2421/2506 29006KT 9999 FEW035
EGLC 250020Z AUTO 28004KT 9999 NCD 16/09 Q1034
EGLC 242350Z AUTO 30007KT 9999 NCD 17/09 Q1033
EGLC 242320Z AUTO 28006KT 250V310 9999 NCD 17/09 Q1033
EGLC 242250Z AUTO 23003KT 9999 NCD 17/09 Q1033
TAF AMD EGLC 242222Z 2422/2506 VRB03KT 9999 FEW045
PROB30 2422/2506 4000 HZ
EGMC 250020Z 29002KT CAVOK 10/08 Q1033
EGMC 242320Z 29001KT CAVOK 10/08 Q1033
EGMC 242250Z 34003KT CAVOK 11/08 Q1033
TAF EGMC 241957Z 2421/2506 VRB03KT 9999 FEW045
EGLL 250020Z AUTO VRB03KT 9999 NCD 13/09 Q1034 NOSIG
EGLL 242350Z AUTO 29004KT 9999 NCD 14/09 Q1034
EGLL 242320Z AUTO 29006KT 9999 NCD 15/08 Q1033 NOSIG
EGLL 242250Z AUTO 29007KT 9999 NCD 15/09 Q1033 NOSIG
TAF EGLL 242256Z 2500/2606 VRB04KT CAVOK
PROB30 2502/2506 8000
PROB30 2600/2606 8000
TAF EGHI 241355Z 2415/2418 30009KT 9999 SCT030
EGCC 250020Z AUTO VRB02KT 9999 NCD 08/07 Q1033 NOSIG
EGCC 242350Z AUTO 11003KT 9999 NCD 08/07 Q1033 NOSIG
EGCC 242320Z AUTO 15003KT 9999 NCD 09/07 Q1033 NOSIG
EGCC 242250Z AUTO 09002KT 9999 NCD 09/08 Q1033
TAF EGCC 242250Z 2500/2606 18005KT 9999 FEW040
PROB30 2502/2506 8000
BECMG 2511/2514 26010KT
EGNX 250020Z VRB02KT CAVOK 11/08 Q1033
EGNX 242350Z 21005KT CAVOK 11/08 Q1033
EGNX 242320Z 20005KT CAVOK 12/08 Q1033
EGNX 242250Z 23006KT CAVOK 11/08 Q1033
TAF EGNX 242251Z 2500/2524 29005KT 9999 FEW035
PROB30 2500/2506 4000 BR MIFG
BECMG 2509/2512 23010KT
EGGP 250020Z AUTO 23004KT 9999 NCD 11/06 Q1033
EGGP 242350Z AUTO 22006KT 9999 NCD 11/06 Q1033
EGGP 242320Z AUTO 21008KT 9999 NCD 11/07 Q1033
EGGP 242250Z AUTO 21008KT 9999 NCD 11/07 Q1033
TAF EGGP 242250Z 2500/2524 20004KT 9999 FEW040
PROB30 2503/2507 8000
BECMG 2509/2512 29010KT
EGBB 250020Z AUTO 29005KT 9999 NCD 13/02 Q1034
EGBB 242350Z 29006KT CAVOK 13/03 Q1034
EGBB 242320Z 30005KT CAVOK 14/04 Q1034
EGBB 242250Z 29006KT CAVOK 14/03 Q1034
TAF EGBB 242251Z 2500/2524 29005KT 9999 FEW035
PROB30 2500/2506 4000 BR MIFG
BECMG 2509/2512 23010KT
EGGD 250020Z AUTO 27005KT 8000 NCD 08/08 Q1035
EGGD 242350Z AUTO 27008KT 9999 NCD 09/08 Q1035
EGGD 242320Z AUTO 25006KT 9999 NCD 09/09 Q1035
EGGD 242250Z AUTO 25008KT 9999 NCD 10/09 Q1034
TAF EGGD 242253Z 2500/2524 25013KT 9999 FEW045
BECMG 2500/2502 21003KT
TEMPO 2500/2508 9000
PROB30
TEMPO 2501/2507 0300 FG VV///
BECMG 2511/2514 29010KT
BECMG 2520/2523 23006KT
EGFF 250020Z AUTO 31006KT 9999 NCD 09/09 Q1035
EGFF 242350Z AUTO 30006KT 9999 NCD 09/09 Q1035
EGFF 242320Z AUTO 32005KT 9999 NCD 09/08 Q1035
EGFF 242250Z AUTO 29007KT 9999 NCD 10/09 Q1035
TAF EGFF 242253Z 2500/2524 29013KT 9999 FEW007
BECMG 2500/2502 31003KT
TEMPO 2500/2502 9000 BKN007
PROB30
TEMPO 2502/2507 0300 FG VV///
BECMG 2511/2514 27013KT
BECMG 2521/2524 30003KT
EGPF 250020Z AUTO VRB01KT 2700 HZ NCD 06/06 Q1031
EGPF 242350Z AUTO 06002KT 9999 NCD 07/06 Q1031
EGPF 242320Z AUTO 27003KT 9999 SCT027 08/07 Q1031
EGPF 242250Z AUTO 24004KT 9999 BKN028 07/06 Q1031
TAF AMD EGPF 250030Z 2500/2524 22009KT 9999 SCT030
PROB30 2500/2507 0200 FG VV///
PROB30
TEMPO 2511/2520 23015G25KT
TEMPO 2517/2524 6000 RA
PROB40
TEMPO 2521/2524 BKN012
EGPH 250020Z 26005KT CAVOK 07/06 Q1031
EGPH 242350Z 26004KT CAVOK 07/06 Q1031
EGPH 242320Z 19003KT CAVOK 09/07 Q1031
EGPH 242250Z 24006KT CAVOK 08/06 Q1031
TAF EGPH 242257Z 2500/2524 23009KT 9999 FEW020
PROB30 2500/2505 6000
PROB30
TEMPO 2512/2521 23015G25KT
EGPK 242350Z 00000KT 9999 SCT048 10/08 Q1031
EGPK 242320Z 00000KT 9999 SCT048 10/09 Q1032
EGPK 242250Z 00000KT 9999 SCT048 11/09 Q1032
TAF EGPK 242257Z 2500/2524 11005KT 9999 SCT040
PROB30 2500/2506 8000
BECMG 2508/2511 22010KT
PROB30
TEMPO 2512/2520 20015G25KT
TEMPO 2517/2524 6000 RA
EHAM 250025Z 30007KT CAVOK 14/11 Q1031 NOSIG
EHAM 242355Z 30007KT 9999 FEW040 14/11 Q1031 NOSIG
EHAM 242325Z 29006KT 9999 FEW032 14/11 Q1031 NOSIG
EHAM 242255Z 29006KT 9999 SCT032 14/11 Q1031 NOSIG
TAF EHAM 242305Z 2500/2606 30008KT 9999 BKN040
BECMG 2507/2510 33010KT
BECMG 2518/2521 VRB03KT
PROB30
TEMPO 2601/2606 4000 MIFG BR
BECMG 2603/2606 15005KT
LFLS 250030Z AUTO 12003KT CAVOK 09/07 Q1029
LFLS 250000Z AUTO VRB03KT CAVOK 11/07 Q1029
LFLS 242330Z AUTO 15003KT 070V190 CAVOK 11/07 Q1029
LFLS 242300Z AUTO 36006KT 330V030 CAVOK 13/08 Q1029
TAF LFLS 241400Z 2415/2515 36012KT 9999 SCT050
PROB40
TEMPO 2415/2418 36015G25KT
BECMG 2420/2422 VRB03KT CAVOK
BECMG 2508/2510 36010KT
LFLL 250030Z AUTO 36007KT CAVOK 13/07 Q1029 NOSIG
LFLL 250000Z AUTO 34009KT CAVOK 13/07 Q1029 NOSIG
LFLL 242330Z AUTO 34008KT CAVOK 14/08 Q1029 NOSIG
LFLL 242300Z AUTO 35007KT CAVOK 14/08 Q1029 NOSIG
TAF LFLL 242300Z 2500/2606 36012KT CAVOK
BECMG 2501/2503 VRB03KT
BECMG 2509/2511 36010KT
TEMPO 2515/2518 36015G28KT
BECMG 2522/2524 VRB03KT
LFLC 250030Z AUTO 36004KT 320V050 CAVOK 12/07 Q1031 NOSIG
LFLC 250000Z AUTO 34004KT CAVOK 12/06 Q1031 NOSIG
LFLC 242330Z AUTO VRB03KT CAVOK 12/06 Q1031 NOSIG
LFLC 242300Z AUTO 34004KT CAVOK 11/06 Q1031 NOSIG
TAF LFLC 242000Z 2421/2521 01010KT 9999 SCT060
BECMG 2422/2424 VRB03KT CAVOK
BECMG 2509/2511 01012KT
BECMG 2518/2520 36004KT
LFRD 250030Z AUTO 04004KT 9000 NSC 11/11 Q1034
LFRD 250000Z AUTO 01004KT CAVOK 10/09 Q1034
LFRD 242330Z AUTO 01006KT CAVOK 10/10 Q1034
LFRD 242300Z AUTO 01005KT CAVOK 10/10 Q1034
LFRC 250030Z AUTO 30006KT CAVOK 10/08 Q1034
LFRC 250000Z AUTO 31006KT CAVOK 10/09 Q1034
LFRC 242330Z AUTO 30006KT CAVOK 10/09 Q1034
LFRC 242300Z AUTO 30006KT CAVOK 10/09 Q1034
VHHH 250030Z 15009KT 9999 FEW012 SCT023 28/25 Q1010 TEMPO 24015G25KT 3500 -TSRA
SHRA FEW010CB SCT020
VHHH 250000Z 07008KT 9999 FEW012 SCT040 29/25 Q1010 TEMPO 24015G25KT 3500 -TSRA
SHRA FEW010CB SCT020
VHHH 242330Z 09008KT 9999 FEW012 28/25 Q1010 NOSIG
VHHH 242300Z 08006KT 9999 FEW012 SCT035 27/25 Q1010 NOSIG
TAF VHHH 242300Z 2500/2606 12010KT 9999 FEW025 SCT040 TX31/2506Z TX30/2606Z
TN25/2522Z
TEMPO 2500/2506 24015G25KT 3500 -TSRA SHRA FEW010CB SCT020
BECMG 2516/2518 21010KT
TEMPO 2516/2520 4000 SHRA FEW010CB SCT020
TEMPO 2520/2602 VRB15G25KT 3500 -TSRA SHRA FEW010CB SCT015
TEMPO 2602/2606 4000 SHRA FEW010CB SCT020